CDT,Max TemperatureF,Mean TemperatureF,Min TemperatureF,Max Dew PointF,MeanDew PointF,Min DewpointF,Max Humidity, Mean Humidity, Min Humidity, Max Sea Level PressureIn, Mean Sea Level PressureIn, Min Sea Level PressureIn, Max VisibilityMiles, Mean VisibilityMiles, Min VisibilityMiles, Max Wind SpeedMPH, Mean Wind SpeedMPH, Max Gust SpeedMPH,PrecipitationIn, CloudCover, Events, WindDirDegrees
2011-10-1,71,52,33,39,31,18,87,56,13,30.35,30.28,30.23,10,10,10,8,2,,0.00,1,,141
2011-10-2,78,58,37,39,32,19,87,47,12,30.28,30.23,30.16,10,10,10,12,3,16,0.00,1,,177
2011-10-3,82,60,39,43,35,27,87,46,13,30.23,30.18,30.13,10,10,10,14,3,18,0.00,1,,141
2011-10-4,91,71,51,46,38,28,67,36,10,30.17,30.13,30.06,10,10,10,16,5,22,0.00,1,,172
2011-10-5,84,67,50,45,35,16,76,38,8,30.14,30.08,30.01,10,10,10,20,6,28,0.00,1,,163
2011-10-6,84,70,55,43,39,30,63,38,16,30.04,29.99,29.92,10,10,5,28,11,37,0.00,1,,153
2011-10-7,86,76,66,57,53,45,52,44,35,30.04,29.98,29.94,10,10,7,30,19,41,0.00,2,,169
2011-10-8,80,72,64,61,54,48,78,57,42,30.11,30.06,30.02,10,10,10,28,14,32,0.00,3,Rain,173
2011-10-9,82,71,60,55,50,39,73,50,21,30.17,30.12,30.04,10,10,10,23,10,32,0.00,1,,147
2011-10-10,73,62,51,57,52,46,88,73,41,30.09,30.03,29.97,10,10,7,12,2,,0.00,4,Rain,209
2011-10-11,78,63,48,57,49,43,94,68,28,29.98,29.89,29.80,10,7,0,18,4,22,0.00,3,Fog,161
2011-10-12,73,63,51,57,53,45,88,70,49,29.78,29.73,29.68,10,9,2,13,6,23,0.05,3,Rain,219
2011-10-13,73,60,48,46,36,19,77,48,14,29.86,29.81,29.77,10,10,10,17,8,28,0.00,1,,307
2011-10-14,64,54,44,36,29,18,66,38,18,30.00,29.94,29.84,10,10,10,18,10,28,0.00,1,,311
2011-10-15,73,53,33,37,27,10,81,45,11,30.09,29.99,29.81,10,10,10,18,5,24,0.00,1,,213
2011-10-16,64,56,48,46,38,27,76,51,27,30.09,29.95,29.73,10,10,10,14,7,21,0.00,1,,339
2011-10-17,48,40,33,43,37,28,87,78,62,30.07,30.04,30.00,10,10,10,8,2,,0.15,4,Rain,334
2011-10-18,53,48,42,39,32,23,76,58,35,30.08,30.04,29.99,10,10,10,18,8,25,0.00,3,,327
2011-10-19,50,40,30,25,22,19,69,52,32,30.10,30.07,30.05,10,10,10,16,8,24,0.00,2,,347
2011-10-20,53,42,30,30,27,23,86,61,30,30.08,30.05,30.02,10,10,10,12,6,22,0.00,2,,313
2011-10-21,69,46,24,36,24,19,86,55,17,30.15,30.10,30.04,10,10,7,15,2,18,0.00,1,,213
2011-10-22,64,48,33,52,39,28,87,71,37,30.14,30.10,30.04,10,10,5,6,0,,0.01,2,Rain,80
2011-10-23,78,56,33,48,38,28,93,59,16,30.04,29.97,29.88,10,7,0,14,3,22,0.00,3,Fog,269
2011-10-24,78,56,33,41,31,21,87,49,12,30.13,30.03,29.88,10,10,10,17,4,21,0.00,1,,172
2011-10-25,78,66,53,52,43,37,59,45,24,29.94,29.78,29.70,10,10,10,22,13,29,0.00,1,,227
2011-10-26,53,47,41,39,35,32,76,62,54,30.12,30.07,30.01,10,10,10,15,9,21,0.00,2,,356
2011-10-27,57,42,28,34,25,5,86,52,12,30.18,30.14,30.11,10,10,10,12,4,,0.00,2,,305
2011-10-28,59,42,26,27,18,1,80,47,10,30.21,30.18,30.16,10,10,10,18,4,28,0.00,1,,331
2011-10-29,62,43,24,27,19,12,80,46,14,30.16,30.03,29.86,10,10,7,15,4,20,0.00,1,,142
2011-10-30,60,46,32,36,23,9,65,37,14,30.06,29.98,29.86,10,10,10,21,12,30,0.00,2,,291
2011-10-31,66,44,21,27,18,9,86,47,11,30.11,30.05,29.95,10,10,10,13,3,18,0.00,1,,164